Time;durP1;ratioP1;P1;durP2;ratioP2;P2;SDS_P1;SDS_P2;PMS_P1;PMS_P2;Temp;Humidity;BMP_temperature;BMP_pressure;BME280_temperature;BME280_humidity;BME280_pressure;Samples;Min_cycle;Max_cycle;Signal;HPM_P1;HPM_P2
2023/04/03 00:01:01;;;;;;;2.20;1.77;;;;;;;;;;5095291;28;20043;-76
2023/04/03 00:03:28;;;;;;;2.63;1.80;;;;;;;;;;5075128;28;20044;-75
2023/04/03 00:05:54;;;;;;;2.03;1.70;;;;;;;;;;5075587;28;20043;-76
2023/04/03 00:08:20;;;;;;;2.13;1.83;;;;;;;;;;5074785;28;20521;-75
2023/04/03 00:10:47;;;;;;;2.67;1.90;;;;;;;;;;5078911;28;20059;-75
2023/04/03 00:13:14;;;;;;;2.15;1.70;;;;;;;;;;5075772;28;20090;-75
2023/04/03 00:15:40;;;;;;;2.50;1.73;;;;;;;;;;5075050;28;20155;-75
2023/04/03 00:18:07;;;;;;;3.20;2.00;;;;;;;;;;5075130;28;20414;-76
2023/04/03 00:20:33;;;;;;;2.88;1.70;;;;;;;;;;5094232;28;20047;-75
2023/04/03 00:22:59;;;;;;;3.42;2.20;;;;;;;;;;5095488;28;20048;-74
2023/04/03 00:25:26;;;;;;;3.65;2.00;;;;;;;;;;5093900;28;20118;-76
2023/04/03 00:27:52;;;;;;;2.80;2.03;;;;;;;;;;5094320;28;20051;-75
2023/04/03 00:30:19;;;;;;;2.45;1.95;;;;;;;;;;5076782;28;20098;-75
2023/04/03 00:32:45;;;;;;;3.13;1.77;;;;;;;;;;5074985;28;20478;-76
2023/04/03 00:35:15;;;;;;;3.97;1.85;;;;;;;;;;5092447;28;20040;-76
2023/04/03 00:37:41;;;;;;;1.98;1.80;;;;;;;;;;5094951;28;20066;-76
2023/04/03 00:40:08;;;;;;;2.13;1.80;;;;;;;;;;5094567;28;20040;-75
2023/04/03 00:42:34;;;;;;;2.65;2.00;;;;;;;;;;5094687;28;20044;-75
2023/04/03 00:45:00;;;;;;;3.60;1.80;;;;;;;;;;5094866;28;20068;-76
2023/04/03 00:47:27;;;;;;;2.10;1.70;;;;;;;;;;5095015;28;20040;-76
2023/04/03 00:49:54;;;;;;;2.47;1.70;;;;;;;;;;5094523;28;20044;-76
2023/04/03 00:52:21;;;;;;;3.40;1.90;;;;;;;;;;5094990;28;20055;-75
2023/04/03 00:54:49;;;;;;;3.40;1.90;;;;;;;;;;5094233;28;20043;-75
2023/04/03 00:57:16;;;;;;;3.50;1.60;;;;;;;;;;5087372;28;20486;-76
2023/04/03 00:59:47;;;;;;;4.65;1.88;;;;;;;;;;5092819;28;20040;-76
2023/04/03 01:02:13;;;;;;;3.35;1.90;;;;;;;;;;5094780;28;20040;-76
2023/04/03 01:04:40;;;;;;;4.40;1.90;;;;;;;;;;5094186;28;20047;-76
2023/04/03 01:07:06;;;;;;;3.50;1.92;;;;;;;;;;5094614;28;20040;-76
2023/04/03 01:09:33;;;;;;;2.60;1.75;;;;;;;;;;5093687;28;20119;-76
2023/04/03 01:12:18;;;;;;;4.05;1.80;;;;;;;;;;5073314;28;20044;-76
2023/04/03 01:14:45;;;;;;;3.72;1.70;;;;;;;;;;5073947;28;20121;-75
2023/04/03 01:17:35;;;;;;;3.70;2.17;;;;;;;;;;5073678;28;20065;-76
2023/04/03 01:20:20;;;;;;;3.50;2.33;;;;;;;;;;5073813;28;20524;-76
2023/04/03 01:23:05;;;;;;;5.57;2.15;;;;;;;;;;5094205;28;20044;-76
2023/04/03 01:25:32;;;;;;;3.38;1.85;;;;;;;;;;5093219;28;20044;-76
2023/04/03 01:27:58;;;;;;;1.77;1.63;;;;;;;;;;5093979;28;20169;-76
2023/04/03 01:30:26;;;;;;;3.47;1.95;;;;;;;;;;5093924;28;20093;-76
2023/04/03 01:32:52;;;;;;;3.50;1.80;;;;;;;;;;5092492;28;20044;-76
2023/04/03 01:35:18;;;;;;;1.75;1.60;;;;;;;;;;5093377;28;20067;-76
2023/04/03 01:37:44;;;;;;;2.50;1.67;;;;;;;;;;5094049;28;20079;-75
2023/04/03 01:40:11;;;;;;;5.03;2.00;;;;;;;;;;5092826;28;20160;-75
2023/04/03 01:42:37;;;;;;;3.40;1.90;;;;;;;;;;5093910;28;20043;-75
2023/04/03 01:45:03;;;;;;;3.70;1.90;;;;;;;;;;5093902;28;20079;-75
2023/04/03 01:47:29;;;;;;;3.28;1.92;;;;;;;;;;5077022;28;20119;-75
2023/04/03 01:49:55;;;;;;;4.35;2.00;;;;;;;;;;5073634;28;20048;-75
2023/04/03 01:52:21;;;;;;;4.05;2.00;;;;;;;;;;5083402;28;20040;-76
2023/04/03 01:54:47;;;;;;;3.63;2.00;;;;;;;;;;5088167;28;20105;-74
2023/04/03 01:57:14;;;;;;;2.85;1.80;;;;;;;;;;5088953;28;20062;-75
2023/04/03 01:59:41;;;;;;;3.40;1.90;;;;;;;;;;5090918;28;20406;-75
2023/04/03 02:02:07;;;;;;;3.28;1.98;;;;;;;;;;5093490;28;20036;-75
2023/04/03 02:04:33;;;;;;;3.28;2.00;;;;;;;;;;5093203;28;20101;-75
2023/04/03 02:06:59;;;;;;;4.18;1.70;;;;;;;;;;5093459;28;20036;-75
2023/04/03 02:09:26;;;;;;;2.85;2.42;;;;;;;;;;5092944;28;20040;-75
2023/04/03 02:11:53;;;;;;;2.42;1.73;;;;;;;;;;5093855;28;20513;-75
2023/04/03 02:14:19;;;;;;;3.17;2.05;;;;;;;;;;5093301;28;20043;-75
2023/04/03 02:16:45;;;;;;;4.20;2.05;;;;;;;;;;5093798;28;20631;-75
2023/04/03 02:19:11;;;;;;;5.65;2.10;;;;;;;;;;5093062;28;20055;-74
2023/04/03 02:21:37;;;;;;;4.43;1.90;;;;;;;;;;5093994;28;20046;-75
2023/04/03 02:24:03;;;;;;;2.65;1.90;;;;;;;;;;5089189;28;20491;-75
2023/04/03 02:26:29;;;;;;;5.07;1.90;;;;;;;;;;5073168;28;20041;-76
2023/04/03 02:28:56;;;;;;;2.88;1.90;;;;;;;;;;5091018;28;20048;-76
2023/04/03 02:31:23;;;;;;;3.70;2.13;;;;;;;;;;5093481;28;20111;-76
2023/04/03 02:33:49;;;;;;;3.17;2.00;;;;;;;;;;5093252;28;20051;-75
2023/04/03 02:36:16;;;;;;;3.65;2.35;;;;;;;;;;5093394;28;20051;-75
2023/04/03 02:38:42;;;;;;;2.95;2.10;;;;;;;;;;5092503;28;20421;-75
2023/04/03 02:41:10;;;;;;;4.93;2.10;;;;;;;;;;5074223;28;20051;-75
2023/04/03 02:43:36;;;;;;;5.97;2.17;;;;;;;;;;5077274;28;20049;-75
2023/04/03 02:46:02;;;;;;;3.92;2.17;;;;;;;;;;5076915;28;20041;-75
2023/04/03 02:48:31;;;;;;;4.22;2.22;;;;;;;;;;5088959;28;20055;-75
2023/04/03 02:50:58;;;;;;;6.05;2.22;;;;;;;;;;5092700;28;20044;-76
2023/04/03 02:53:24;;;;;;;5.65;2.20;;;;;;;;;;5092192;28;20101;-76
2023/04/03 02:55:50;;;;;;;4.18;2.40;;;;;;;;;;5096955;28;20040;-76
2023/04/03 02:58:16;;;;;;;3.10;2.10;;;;;;;;;;5096471;28;20048;-76
2023/04/03 03:00:42;;;;;;;3.58;2.10;;;;;;;;;;5097178;28;20044;-76
2023/04/03 03:03:09;;;;;;;4.53;2.08;;;;;;;;;;5096912;28;20047;-75
2023/04/03 03:05:35;;;;;;;5.32;2.40;;;;;;;;;;5096415;28;20044;-75
2023/04/03 03:08:01;;;;;;;2.55;1.90;;;;;;;;;;5095416;28;20044;-75
2023/04/03 03:10:27;;;;;;;3.25;2.25;;;;;;;;;;5076197;28;20044;-75
2023/04/03 03:12:54;;;;;;;5.30;2.00;;;;;;;;;;5094787;28;20032;-75
2023/04/03 03:15:20;;;;;;;4.15;2.28;;;;;;;;;;5096728;28;20091;-75
2023/04/03 03:17:46;;;;;;;2.95;2.10;;;;;;;;;;5096283;28;20044;-75
2023/04/03 03:20:14;;;;;;;3.35;2.17;;;;;;;;;;5095703;28;20104;-75
2023/04/03 03:22:41;;;;;;;3.25;2.15;;;;;;;;;;5096110;28;20044;-76
2023/04/03 03:25:07;;;;;;;4.00;2.30;;;;;;;;;;5096394;28;20482;-75
2023/04/03 03:27:33;;;;;;;3.20;2.10;;;;;;;;;;5096114;28;20119;-76
2023/04/03 03:29:59;;;;;;;5.25;2.10;;;;;;;;;;5096640;28;20128;-76
2023/04/03 03:32:25;;;;;;;4.80;2.50;;;;;;;;;;5095117;28;20166;-75
2023/04/03 03:34:51;;;;;;;4.05;2.10;;;;;;;;;;5096366;28;20062;-75
2023/04/03 03:37:17;;;;;;;3.88;2.25;;;;;;;;;;5095694;28;20059;-75
2023/04/03 03:39:44;;;;;;;6.88;2.47;;;;;;;;;;5095733;28;20040;-75
2023/04/03 03:42:11;;;;;;;3.97;2.28;;;;;;;;;;5095985;28;20048;-75
2023/04/03 03:44:37;;;;;;;4.85;2.28;;;;;;;;;;5096241;28;20086;-75
2023/04/03 03:47:05;;;;;;;4.57;2.30;;;;;;;;;;5095940;28;20090;-76
2023/04/03 03:49:31;;;;;;;3.95;2.38;;;;;;;;;;5091241;28;20044;-76
2023/04/03 03:51:57;;;;;;;3.75;2.50;;;;;;;;;;5082728;28;20075;-75
2023/04/03 03:54:24;;;;;;;5.90;2.97;;;;;;;;;;5095487;28;20470;-75
2023/04/03 03:56:50;;;;;;;6.13;3.20;;;;;;;;;;5096059;28;20044;-76
2023/04/03 03:59:16;;;;;;;6.28;2.75;;;;;;;;;;5095264;28;20044;-75
2023/04/03 04:01:42;;;;;;;4.30;2.30;;;;;;;;;;5095507;28;20054;-75
2023/04/03 04:04:08;;;;;;;7.63;2.45;;;;;;;;;;5095400;28;20466;-76
2023/04/03 04:06:34;;;;;;;5.65;2.63;;;;;;;;;;5094789;28;20507;-75
2023/04/03 04:09:02;;;;;;;4.57;2.40;;;;;;;;;;5077217;28;20352;-75
2023/04/03 04:11:28;;;;;;;5.45;2.78;;;;;;;;;;5075112;28;20037;-76
2023/04/03 04:13:55;;;;;;;8.88;2.97;;;;;;;;;;5082346;28;20443;-76
2023/04/03 04:16:21;;;;;;;4.22;2.55;;;;;;;;;;5095361;28;20351;-76
2023/04/03 04:18:47;;;;;;;5.10;2.58;;;;;;;;;;5094952;28;20036;-76
2023/04/03 04:21:13;;;;;;;4.28;2.40;;;;;;;;;;5095247;28;20450;-75
2023/04/03 04:23:39;;;;;;;5.53;3.95;;;;;;;;;;5094596;28;20140;-76
2023/04/03 04:26:05;;;;;;;6.05;2.40;;;;;;;;;;5095508;28;20048;-76
2023/04/03 04:28:31;;;;;;;6.45;2.65;;;;;;;;;;5094917;28;20486;-76
2023/04/03 04:30:57;;;;;;;4.20;2.53;;;;;;;;;;5074928;28;20530;-76
2023/04/03 04:33:23;;;;;;;4.50;2.50;;;;;;;;;;5074755;28;20356;-76
2023/04/03 04:35:49;;;;;;;4.45;2.50;;;;;;;;;;5074989;28;20048;-76
2023/04/03 04:38:16;;;;;;;6.75;2.67;;;;;;;;;;5080160;28;20032;-76
2023/04/03 04:40:42;;;;;;;4.90;2.72;;;;;;;;;;5094819;28;20040;-76
2023/04/03 04:43:08;;;;;;;5.40;2.55;;;;;;;;;;5094279;28;20438;-76
2023/04/03 04:45:34;;;;;;;10.88;3.15;;;;;;;;;;5095248;28;20126;-76
2023/04/03 04:48:00;;;;;;;6.15;2.80;;;;;;;;;;5094670;28;20049;-76
2023/04/03 04:50:26;;;;;;;5.63;2.80;;;;;;;;;;5094712;28;20050;-76
2023/04/03 04:52:52;;;;;;;6.90;2.80;;;;;;;;;;5094214;28;20506;-76
2023/04/03 04:55:18;;;;;;;5.90;2.95;;;;;;;;;;5080612;28;20091;-76
2023/04/03 04:57:44;;;;;;;6.15;2.75;;;;;;;;;;5094133;28;20044;-75
2023/04/03 05:00:11;;;;;;;5.28;2.83;;;;;;;;;;5094045;28;20083;-75
2023/04/03 05:02:37;;;;;;;4.85;2.90;;;;;;;;;;5094370;28;20040;-75
2023/04/03 05:05:03;;;;;;;5.15;2.53;;;;;;;;;;5094003;28;20040;-75
2023/04/03 05:07:29;;;;;;;5.18;3.00;;;;;;;;;;5073929;28;20487;-75
2023/04/03 05:09:55;;;;;;;6.75;2.70;;;;;;;;;;5072960;28;20101;-75
2023/04/03 05:12:21;;;;;;;8.73;3.83;;;;;;;;;;5093339;28;20055;-75
2023/04/03 05:14:47;;;;;;;7.45;2.78;;;;;;;;;;5093851;28;20048;-75
2023/04/03 05:17:13;;;;;;;7.68;2.78;;;;;;;;;;5093310;28;20052;-75
2023/04/03 05:19:40;;;;;;;6.47;2.70;;;;;;;;;;5093733;28;20055;-75
2023/04/03 05:22:06;;;;;;;6.18;2.75;;;;;;;;;;5092268;28;20071;-75
2023/04/03 05:24:32;;;;;;;9.73;2.75;;;;;;;;;;5077569;28;20044;-75
2023/04/03 05:26:58;;;;;;;8.20;3.08;;;;;;;;;;5073946;28;20063;-75
2023/04/03 05:29:24;;;;;;;7.43;2.90;;;;;;;;;;5073765;28;20149;-75
2023/04/03 05:31:50;;;;;;;4.72;2.70;;;;;;;;;;5074466;28;20371;-75
2023/04/03 05:34:16;;;;;;;4.82;3.10;;;;;;;;;;5074059;28;20048;-75
2023/04/03 05:36:42;;;;;;;6.10;2.97;;;;;;;;;;5092422;28;20036;-75
2023/04/03 05:39:08;;;;;;;6.30;3.03;;;;;;;;;;5095178;28;20062;-75
2023/04/03 05:41:35;;;;;;;6.72;3.28;;;;;;;;;;5097772;28;20078;-77
2023/04/03 05:44:01;;;;;;;5.65;2.65;;;;;;;;;;5094795;28;20139;-75
2023/04/03 05:46:27;;;;;;;4.55;3.00;;;;;;;;;;5096903;28;20043;-74
2023/04/03 05:48:53;;;;;;;5.43;3.00;;;;;;;;;;5094512;28;20048;-75
2023/04/03 05:51:22;;;;;;;4.53;2.95;;;;;;;;;;5093389;28;20043;-74
2023/04/03 05:53:48;;;;;;;5.40;2.78;;;;;;;;;;5092563;28;20044;-74
2023/04/03 05:56:14;;;;;;;5.97;3.10;;;;;;;;;;5093708;28;20044;-74
2023/04/03 05:58:41;;;;;;;8.43;3.05;;;;;;;;;;5092643;28;20403;-75
2023/04/03 06:01:07;;;;;;;6.82;3.00;;;;;;;;;;5091417;28;20047;-76
2023/04/03 06:03:33;;;;;;;5.10;3.15;;;;;;;;;;5092845;28;20044;-77
2023/04/03 06:05:59;;;;;;;6.60;3.10;;;;;;;;;;5093671;28;20044;-75
2023/04/03 06:08:25;;;;;;;7.35;3.45;;;;;;;;;;5084182;28;20036;-74
2023/04/03 06:10:52;;;;;;;8.55;3.58;;;;;;;;;;5078004;28;20044;-75
2023/04/03 06:13:18;;;;;;;8.52;3.25;;;;;;;;;;5093345;28;20565;-74
2023/04/03 06:15:44;;;;;;;5.60;3.10;;;;;;;;;;5093538;28;20478;-74
2023/04/03 06:18:10;;;;;;;7.40;3.03;;;;;;;;;;5093153;28;20047;-74
2023/04/03 06:20:36;;;;;;;7.80;3.20;;;;;;;;;;5093062;28;20036;-75
2023/04/03 06:23:02;;;;;;;5.05;2.70;;;;;;;;;;5090921;28;20482;-74
2023/04/03 06:25:28;;;;;;;5.30;3.35;;;;;;;;;;5092151;28;20515;-75
2023/04/03 06:27:58;;;;;;;7.72;3.22;;;;;;;;;;5095847;28;20566;-75
2023/04/03 06:30:24;;;;;;;7.78;3.63;;;;;;;;;;5097261;28;20094;-75
2023/04/03 06:32:50;;;;;;;7.72;3.40;;;;;;;;;;5096883;28;20067;-75
2023/04/03 06:35:16;;;;;;;6.13;3.20;;;;;;;;;;5096798;28;20048;-75
2023/04/03 06:37:42;;;;;;;7.28;3.00;;;;;;;;;;5096493;28;20209;-75
2023/04/03 06:40:16;;;;;;;6.53;3.22;;;;;;;;;;5093573;28;20079;-75
2023/04/03 06:42:42;;;;;;;5.50;3.00;;;;;;;;;;5084643;28;20072;-75
2023/04/03 06:45:09;;;;;;;6.78;3.45;;;;;;;;;;5096331;28;20040;-75
2023/04/03 06:47:35;;;;;;;6.57;2.90;;;;;;;;;;5096331;28;20497;-75
2023/04/03 06:50:01;;;;;;;5.25;2.60;;;;;;;;;;5096856;28;20044;-75
2023/04/03 06:52:27;;;;;;;8.77;2.63;;;;;;;;;;5096131;28;20036;-74
2023/04/03 06:54:56;;;;;;;6.40;2.97;;;;;;;;;;5089131;28;20077;-74
2023/04/03 06:57:24;;;;;;;7.13;2.70;;;;;;;;;;5096720;28;20044;-74
2023/04/03 06:59:50;;;;;;;6.72;2.88;;;;;;;;;;5091309;28;20090;-74
2023/04/03 07:02:16;;;;;;;6.28;3.15;;;;;;;;;;5087029;28;20036;-74
2023/04/03 07:04:42;;;;;;;5.47;2.90;;;;;;;;;;5096484;28;20044;-74
2023/04/03 07:07:08;;;;;;;5.93;2.95;;;;;;;;;;5096440;28;20044;-75
2023/04/03 07:09:34;;;;;;;5.72;3.17;;;;;;;;;;5096650;28;20078;-75
2023/04/03 07:12:00;;;;;;;5.60;2.67;;;;;;;;;;5096399;28;20094;-76
2023/04/03 07:14:26;;;;;;;5.07;2.67;;;;;;;;;;5092265;28;20044;-75
2023/04/03 07:16:52;;;;;;;5.10;2.70;;;;;;;;;;5084266;28;20063;-75
2023/04/03 07:19:19;;;;;;;6.55;3.03;;;;;;;;;;5083764;28;20048;-75
2023/04/03 07:21:45;;;;;;;4.45;2.67;;;;;;;;;;5081181;28;20151;-77
2023/04/03 07:24:11;;;;;;;6.60;2.58;;;;;;;;;;5078982;28;20036;-75
2023/04/03 07:26:37;;;;;;;8.25;2.70;;;;;;;;;;5081000;28;20157;-75
2023/04/03 07:29:04;;;;;;;4.50;2.80;;;;;;;;;;5092755;28;20065;-74
2023/04/03 07:31:30;;;;;;;4.10;2.50;;;;;;;;;;5085737;28;20044;-75
2023/04/03 07:33:56;;;;;;;4.32;2.28;;;;;;;;;;5082431;28;20039;-73
2023/04/03 07:36:22;;;;;;;5.68;2.58;;;;;;;;;;5087277;28;20047;-74
2023/04/03 07:38:49;;;;;;;5.32;2.30;;;;;;;;;;5091976;28;20123;-74
2023/04/03 07:41:17;;;;;;;4.80;2.75;;;;;;;;;;5082422;28;20577;-74
2023/04/03 07:43:43;;;;;;;6.68;3.05;;;;;;;;;;5082132;28;20045;-75
2023/04/03 07:46:10;;;;;;;4.65;2.35;;;;;;;;;;5080011;28;20469;-75
2023/04/03 07:48:36;;;;;;;8.13;2.50;;;;;;;;;;5079800;28;20165;-75
2023/04/03 07:51:04;;;;;;;5.20;2.50;;;;;;;;;;5094362;28;20076;-76
2023/04/03 07:53:30;;;;;;;3.88;2.53;;;;;;;;;;5073504;28;20085;-75
2023/04/03 07:55:57;;;;;;;5.78;2.47;;;;;;;;;;5082707;28;20042;-75
2023/04/03 07:58:24;;;;;;;5.88;2.20;;;;;;;;;;5085693;28;20491;-76
2023/04/03 08:00:50;;;;;;;6.13;2.90;;;;;;;;;;5093599;28;20044;-76
2023/04/03 08:03:17;;;;;;;4.43;2.60;;;;;;;;;;5093876;28;20094;-76
2023/04/03 08:05:47;;;;;;;7.07;2.50;;;;;;;;;;5095170;28;20097;-75
2023/04/03 08:08:15;;;;;;;5.35;2.55;;;;;;;;;;5086996;28;20402;-75
2023/04/03 08:10:41;;;;;;;5.25;2.28;;;;;;;;;;5086710;28;20040;-75
2023/04/03 08:13:09;;;;;;;5.25;2.28;;;;;;;;;;5085693;28;20040;-75
2023/04/03 08:15:35;;;;;;;5.05;2.75;;;;;;;;;;5087563;28;20123;-76
2023/04/03 08:18:01;;;;;;;8.85;2.72;;;;;;;;;;5093790;28;20048;-75
2023/04/03 08:20:28;;;;;;;4.97;2.75;;;;;;;;;;5094548;28;20468;-74
2023/04/03 08:22:54;;;;;;;4.72;2.50;;;;;;;;;;5091916;28;20051;-74
2023/04/03 08:25:20;;;;;;;6.05;2.25;;;;;;;;;;5073116;28;20048;-75
2023/04/03 08:27:46;;;;;;;7.45;2.50;;;;;;;;;;5082932;28;20036;-75
2023/04/03 08:30:13;;;;;;;4.68;2.65;;;;;;;;;;5094881;28;20036;-74
2023/04/03 08:32:41;;;;;;;6.82;2.88;;;;;;;;;;5095048;28;20047;-74
2023/04/03 08:35:07;;;;;;;5.38;2.28;;;;;;;;;;5094780;28;20083;-75
2023/04/03 08:37:36;;;;;;;5.32;2.72;;;;;;;;;;5093730;28;20043;-75
2023/04/03 08:40:02;;;;;;;5.85;2.33;;;;;;;;;;5097542;28;20040;-74
2023/04/03 08:42:44;;;;;;;3.85;2.47;;;;;;;;;;5096129;28;20093;-75
2023/04/03 08:45:29;;;;;;;5.15;2.63;;;;;;;;;;5086326;28;20115;-75
2023/04/03 08:48:07;;;;;;;4.80;2.40;;;;;;;;;;5092042;28;20544;-75
2023/04/03 08:50:50;;;;;;;4.15;2.50;;;;;;;;;;5081455;28;20209;-75
2023/04/03 08:53:23;;;;;;;5.97;2.58;;;;;;;;;;5093927;28;20448;-75
2023/04/03 08:55:53;;;;;;;4.63;2.58;;;;;;;;;;5094131;28;20047;-75
2023/04/03 08:58:22;;;;;;;5.90;2.42;;;;;;;;;;5071023;28;20585;-74
2023/04/03 09:00:51;;;;;;;4.93;2.50;;;;;;;;;;5084295;28;20518;-75
2023/04/03 09:03:19;;;;;;;5.75;2.45;;;;;;;;;;5073765;28;20074;-75
2023/04/03 09:05:54;;;;;;;6.50;2.72;;;;;;;;;;5093983;28;20381;-76
2023/04/03 09:08:23;;;;;;;7.28;2.63;;;;;;;;;;5094622;28;20051;-76
2023/04/03 09:10:50;;;;;;;5.22;2.58;;;;;;;;;;5094037;28;20047;-76
2023/04/03 09:13:18;;;;;;;4.72;2.28;;;;;;;;;;5094388;28;20061;-76
2023/04/03 09:15:45;;;;;;;4.50;2.50;;;;;;;;;;5093616;28;20064;-76
2023/04/03 09:18:22;;;;;;;4.32;2.10;;;;;;;;;;5093577;28;20052;-76
2023/04/03 09:21:10;;;;;;;3.40;2.20;;;;;;;;;;5094156;28;20047;-76
2023/04/03 09:23:50;;;;;;;6.35;2.30;;;;;;;;;;5062744;28;20057;-76
2023/04/03 09:26:21;;;;;;;4.72;2.47;;;;;;;;;;5082697;28;20066;-75
2023/04/03 09:28:48;;;;;;;4.30;2.55;;;;;;;;;;5093080;28;20089;-76
2023/04/03 09:31:17;;;;;;;7.05;2.58;;;;;;;;;;5093172;28;20039;-75
2023/04/03 09:33:43;;;;;;;5.80;2.42;;;;;;;;;;5094105;28;20081;-75
2023/04/03 09:36:10;;;;;;;3.45;2.40;;;;;;;;;;5080287;28;20139;-75
2023/04/03 09:38:36;;;;;;;3.10;2.05;;;;;;;;;;5078158;28;20036;-75
2023/04/03 09:41:02;;;;;;;4.47;2.30;;;;;;;;;;5082608;28;20046;-75
2023/04/03 09:43:30;;;;;;;3.63;2.33;;;;;;;;;;5084004;28;20064;-76
2023/04/03 09:46:16;;;;;;;3.15;1.95;;;;;;;;;;5083400;28;20060;-76
2023/04/03 09:48:50;;;;;;;3.30;1.70;;;;;;;;;;5082971;28;20048;-75
2023/04/03 09:51:17;;;;;;;2.17;1.70;;;;;;;;;;5078825;28;20036;-75
2023/04/03 09:53:44;;;;;;;3.97;1.90;;;;;;;;;;5077203;28;20040;-75
2023/04/03 09:56:16;;;;;;;5.40;2.00;;;;;;;;;;5076711;28;20568;-75
2023/04/03 09:58:43;;;;;;;2.47;1.85;;;;;;;;;;5083761;28;20375;-74
2023/04/03 10:01:28;;;;;;;3.33;1.80;;;;;;;;;;5084753;28;20044;-75
2023/04/03 10:04:05;;;;;;;4.15;1.90;;;;;;;;;;5096185;28;20390;-76
2023/04/03 10:06:32;;;;;;;2.50;2.00;;;;;;;;;;5098379;28;20160;-76
2023/04/03 10:09:21;;;;;;;4.85;1.88;;;;;;;;;;5097475;28;20044;-75
2023/04/03 10:12:01;;;;;;;3.40;1.95;;;;;;;;;;5089166;28;20052;-75
2023/04/03 10:14:27;;;;;;;5.07;2.17;;;;;;;;;;5088336;28;20060;-75
2023/04/03 10:16:58;;;;;;;2.75;1.67;;;;;;;;;;5091408;28;20052;-75
2023/04/03 10:19:24;;;;;;;4.57;2.03;;;;;;;;;;5085741;28;20078;-75
2023/04/03 10:22:03;;;;;;;2.80;1.88;;;;;;;;;;5094530;28;20398;-75
2023/04/03 10:24:32;;;;;;;3.65;2.10;;;;;;;;;;5085362;28;20082;-75
2023/04/03 10:27:16;;;;;;;2.70;1.80;;;;;;;;;;5096375;28;20040;-75
2023/04/03 10:29:48;;;;;;;4.15;1.80;;;;;;;;;;5096371;28;20044;-75
2023/04/03 10:32:17;;;;;;;3.33;1.73;;;;;;;;;;5094206;28;20387;-75
2023/04/03 10:34:43;;;;;;;2.75;1.77;;;;;;;;;;5098511;28;20089;-75
2023/04/03 10:37:23;;;;;;;5.55;1.88;;;;;;;;;;5096952;28;20063;-75
2023/04/03 10:40:06;;;;;;;4.00;1.80;;;;;;;;;;5078899;28;20094;-76
2023/04/03 10:42:37;;;;;;;2.13;1.63;;;;;;;;;;5088547;28;20032;-76
2023/04/03 10:45:27;;;;;;;4.15;1.70;;;;;;;;;;5085756;28;20040;-75
2023/04/03 10:47:56;;;;;;;2.55;1.70;;;;;;;;;;5085905;28;20087;-75
2023/04/03 10:50:40;;;;;;;2.47;1.80;;;;;;;;;;5096099;28;20436;-75
2023/04/03 10:53:11;;;;;;;2.60;1.67;;;;;;;;;;5092335;28;20044;-75
2023/04/03 10:55:55;;;;;;;2.30;1.63;;;;;;;;;;5082517;28;20121;-74
2023/04/03 10:58:27;;;;;;;2.55;1.85;;;;;;;;;;5083527;28;20119;-75
2023/04/03 11:00:54;;;;;;;2.70;1.67;;;;;;;;;;5100928;28;20040;-75
2023/04/03 11:03:24;;;;;;;5.43;1.77;;;;;;;;;;5103687;28;20075;-74
2023/04/03 11:05:53;;;;;;;3.20;1.80;;;;;;;;;;5096433;28;20566;-75
2023/04/03 11:08:20;;;;;;;4.25;1.80;;;;;;;;;;5090654;28;20127;-76
2023/04/03 11:10:47;;;;;;;1.85;1.50;;;;;;;;;;5096386;28;20498;-75
2023/04/03 11:13:22;;;;;;;1.90;1.38;;;;;;;;;;5099827;28;20036;-75
2023/04/03 11:15:49;;;;;;;2.88;1.63;;;;;;;;;;5095881;28;20409;-75
2023/04/03 11:18:19;;;;;;;1.95;1.45;;;;;;;;;;5095778;28;20052;-75
2023/04/03 11:20:51;;;;;;;2.92;1.58;;;;;;;;;;5087532;28;20124;-75
2023/04/03 11:23:23;;;;;;;2.72;1.67;;;;;;;;;;5092777;28;20119;-75
2023/04/03 11:25:52;;;;;;;2.58;1.48;;;;;;;;;;5088332;28;20481;-75
2023/04/03 11:28:18;;;;;;;2.55;1.70;;;;;;;;;;5087597;28;20036;-75
2023/04/03 11:30:44;;;;;;;2.63;1.70;;;;;;;;;;5094174;28;20040;-75
2023/04/03 11:33:33;;;;;;;2.60;1.45;;;;;;;;;;5080496;28;20044;-75
2023/04/03 11:36:10;;;;;;;1.95;1.35;;;;;;;;;;5082358;28;20391;-75
2023/04/03 11:38:39;;;;;;;3.65;1.70;;;;;;;;;;5078816;28;20450;-75
2023/04/03 11:41:06;;;;;;;2.53;1.83;;;;;;;;;;5088828;28;20048;-75
2023/04/03 11:43:33;;;;;;;2.60;1.55;;;;;;;;;;5097483;28;20086;-74
2023/04/03 11:45:59;;;;;;;5.13;1.80;;;;;;;;;;5097987;28;20040;-75
2023/04/03 11:48:28;;;;;;;2.85;1.52;;;;;;;;;;5097498;28;20032;-75
2023/04/03 11:50:55;;;;;;;2.63;1.85;;;;;;;;;;5082411;28;20045;-75
2023/04/03 11:53:21;;;;;;;1.80;1.60;;;;;;;;;;5085717;28;20036;-75
2023/04/03 11:55:49;;;;;;;2.67;1.60;;;;;;;;;;5092304;28;20055;-76
2023/04/03 11:58:20;;;;;;;2.22;1.40;;;;;;;;;;5095261;28;20536;-76
2023/04/03 12:00:46;;;;;;;2.15;1.50;;;;;;;;;;5093356;28;20077;-75
2023/04/03 12:03:28;;;;;;;2.55;1.77;;;;;;;;;;5093030;28;20429;-75
2023/04/03 12:05:57;;;;;;;3.28;1.63;;;;;;;;;;5080528;28;20051;-75
2023/04/03 12:08:31;;;;;;;3.10;1.55;;;;;;;;;;5097213;28;20494;-75
2023/04/03 12:11:20;;;;;;;3.10;1.50;;;;;;;;;;5094988;28;20115;-75
2023/04/03 12:13:52;;;;;;;3.15;1.73;;;;;;;;;;5094302;28;20098;-75
2023/04/03 12:16:24;;;;;;;4.68;2.03;;;;;;;;;;5093746;28;20398;-75
2023/04/03 12:18:53;;;;;;;3.30;1.83;;;;;;;;;;5093570;28;20475;-75
2023/04/03 12:21:23;;;;;;;3.10;1.60;;;;;;;;;;5095007;28;20502;-75
2023/04/03 12:24:10;;;;;;;2.03;1.77;;;;;;;;;;5074501;28;20055;-75
2023/04/03 12:26:36;;;;;;;;;;;;;;;;;;5071734;28;20059;-75
2023/04/03 12:29:08;;;;;;;3.80;1.80;;;;;;;;;;5094861;28;19953;-75
2023/04/03 12:31:41;;;;;;;3.03;1.90;;;;;;;;;;5096084;28;20174;-76
2023/04/03 12:34:26;;;;;;;2.15;1.50;;;;;;;;;;5089204;28;20074;-75
2023/04/03 12:36:53;;;;;;;3.63;1.95;;;;;;;;;;5088241;28;20044;-75
2023/04/03 12:39:44;;;;;;;3.83;2.00;;;;;;;;;;5084421;28;20398;-75
2023/04/03 12:42:30;;;;;;;3.25;1.88;;;;;;;;;;5092943;28;20456;-76
2023/04/03 12:45:16;;;;;;;3.13;1.77;;;;;;;;;;5082399;28;20409;-76
2023/04/03 12:47:43;;;;;;;2.30;1.80;;;;;;;;;;5076976;28;20127;-76
2023/04/03 12:50:21;;;;;;;5.32;2.00;;;;;;;;;;5085208;28;20111;-76
2023/04/03 12:53:07;;;;;;;3.85;1.88;;;;;;;;;;5088615;28;20119;-76
2023/04/03 12:55:33;;;;;;;3.33;1.95;;;;;;;;;;5089250;28;20055;-76
2023/04/03 12:58:35;;;;;;;4.35;1.80;;;;;;;;;;5094126;28;20169;-76
2023/04/03 13:01:01;;;;;;;3.75;1.92;;;;;;;;;;5011927;28;20045;-76
2023/04/03 13:03:27;;;;;;;4.28;1.70;;;;;;;;;;5012082;28;20054;-76
2023/04/03 13:06:01;;;;;;;3.97;1.98;;;;;;;;;;5012079;28;20121;-76
2023/04/03 13:08:28;;;;;;;3.42;1.90;;;;;;;;;;5011649;28;20085;-76
2023/04/03 13:11:06;;;;;;;2.80;1.85;;;;;;;;;;4989143;28;20054;-76
2023/04/03 13:13:32;;;;;;;3.25;1.70;;;;;;;;;;5008551;28;20050;-76
2023/04/03 13:15:58;;;;;;;2.80;1.70;;;;;;;;;;5011419;28;20053;-76
2023/04/03 13:18:29;;;;;;;3.65;1.60;;;;;;;;;;5007578;28;20704;-76
2023/04/03 13:21:15;;;;;;;2.67;2.00;;;;;;;;;;5011449;28;20042;-76
2023/04/03 13:23:44;;;;;;;2.65;1.60;;;;;;;;;;5011445;28;20088;-78
2023/04/03 13:26:11;;;;;;;2.90;1.63;;;;;;;;;;5006091;28;20053;-76
2023/04/03 13:28:37;;;;;;;2.05;1.58;;;;;;;;;;5002122;28;20057;-76
2023/04/03 13:31:03;;;;;;;2.65;1.60;;;;;;;;;;5011748;28;20038;-76
2023/04/03 13:33:31;;;;;;;2.95;1.80;;;;;;;;;;5011378;28;20538;-76
2023/04/03 13:36:00;;;;;;;3.53;1.83;;;;;;;;;;5085301;28;20093;-76
2023/04/03 13:38:31;;;;;;;3.75;1.88;;;;;;;;;;5087533;28;20102;-75
2023/04/03 13:41:00;;;;;;;2.45;1.65;;;;;;;;;;5088519;28;20101;-75
2023/04/03 13:43:30;;;;;;;4.05;2.42;;;;;;;;;;5093065;28;20512;-76
2023/04/03 13:46:22;;;;;;;2.45;1.58;;;;;;;;;;5090021;28;20445;-76
2023/04/03 13:48:50;;;;;;;3.78;1.83;;;;;;;;;;5081698;28;20040;-76
2023/04/03 13:51:22;;;;;;;6.32;2.33;;;;;;;;;;5083212;28;20052;-76
2023/04/03 13:53:57;;;;;;;4.38;2.10;;;;;;;;;;5093759;28;20051;-77
2023/04/03 13:56:26;;;;;;;3.58;1.80;;;;;;;;;;5093354;28;20502;-74
2023/04/03 13:58:54;;;;;;;4.20;1.77;;;;;;;;;;5093632;28;20040;-76
2023/04/03 14:01:22;;;;;;;3.55;1.80;;;;;;;;;;5093518;28;20044;-75
2023/04/03 14:03:57;;;;;;;2.35;1.73;;;;;;;;;;5091797;28;20040;-75
2023/04/03 14:06:23;;;;;;;2.85;1.90;;;;;;;;;;5075026;28;20415;-75
2023/04/03 14:08:49;;;;;;;3.53;2.00;;;;;;;;;;5077076;28;20047;-75
2023/04/03 14:11:18;;;;;;;3.17;2.03;;;;;;;;;;5093280;28;20417;-76
2023/04/03 14:13:44;;;;;;;3.47;2.10;;;;;;;;;;5093687;28;20036;-76
2023/04/03 14:16:19;;;;;;;4.00;2.20;;;;;;;;;;5088498;28;20492;-76
2023/04/03 14:18:46;;;;;;;3.85;2.13;;;;;;;;;;5073501;28;20502;-76
2023/04/03 14:21:14;;;;;;;4.38;2.10;;;;;;;;;;5086167;28;20059;-76
2023/04/03 14:23:41;;;;;;;2.55;2.05;;;;;;;;;;5082378;28;20056;-76
2023/04/03 14:26:12;;;;;;;3.80;2.03;;;;;;;;;;5091887;28;20498;-76
2023/04/03 14:28:39;;;;;;;3.25;2.10;;;;;;;;;;5073030;28;20444;-76
2023/04/03 14:31:06;;;;;;;4.85;2.20;;;;;;;;;;5079305;28;20082;-75
2023/04/03 14:33:34;;;;;;;4.15;2.00;;;;;;;;;;5079312;28;20036;-75
2023/04/03 14:36:02;;;;;;;4.25;2.00;;;;;;;;;;5079362;28;20052;-76
2023/04/03 14:38:31;;;;;;;3.65;1.92;;;;;;;;;;5091498;28;20040;-76
2023/04/03 14:40:58;;;;;;;4.18;2.10;;;;;;;;;;5089379;28;20514;-76
2023/04/03 14:43:25;;;;;;;3.15;1.92;;;;;;;;;;5081753;28;20036;-76
2023/04/03 14:45:51;;;;;;;4.20;2.20;;;;;;;;;;5087859;28;20128;-76
2023/04/03 14:48:19;;;;;;;5.10;2.00;;;;;;;;;;5086143;28;20051;-75
2023/04/03 14:50:46;;;;;;;4.63;2.30;;;;;;;;;;5082493;28;20047;-76
2023/04/03 14:53:14;;;;;;;5.25;2.53;;;;;;;;;;5096895;28;20055;-76